Deerfield, WI

7:34 AM CDT on March 23, 2017 (GMT -0500)
Town of Deerfield | | Change Station

Elev 879 ft 43.06 °N, 89.09 °W | Updated 10 seconds ago

Overcast
Overcast
31.5 °F
Feels Like 25 °F
N
7.0
Wind Variable Wind from SSE

Today
High -- | Low -- °F
--% Chance of Precip.
Yesterday
High -- | Low -- °F
Precip. -- in
Pressure 30.40 in
Visibility 10.0 miles
Clouds Overcast 8000 ft
Windchill 25 °F
Dew Point 24 °F
Humidity 74%
Rainfall 0.00 in
Snow Depth Not available.
6:53 AM 7:12 PM
Waning Crescent, 23% visible
METAR KMSN 231153Z 15007KT 10SM OVC080 M01/M06 A3037 RMK AO2 SLP292 T10061061 11006 21033 56006
Pressure 30.40 in
Visibility 10.0 miles
Clouds Overcast 8000 ft
Windchill 25 °F
Dew Point 24 °F
Humidity 74%
Rainfall 0.00 in
Snow Depth Not available.
6:53 AM 7:12 PM
Waning Crescent, 23% visible
METAR KMSN 231153Z 15007KT 10SM OVC080 M01/M06 A3037 RMK AO2 SLP292 T10061061 11006 21033 56006

Get Severe Weather Alerts

Thanks for signing up!

Be on the lookout for a verification email in your inbox.

You'll start receiving the daily forecast at 8 AM.

×

10-Day Weather Forecast

Almanac

Astronomy

Mar. 23, 2017 Rise Set
Actual Time
Civil Twilight
Nautical Twilight
Astronomical Twilight
Moon
Length of Visible Light
Length of Day
Tomorrow will be .
, % of the Moon is Illuminated

Today's Extremes

State Highs State Lows

Community

WunderPhotos

Upload Photos

1,962,540 photos uploaded!

WunderBlog® & News

Nearby

Air Quality

  Air Quality AQ Index Pollutant
Not available.

Snow Depth

Station Depth Elevation

Earthquake Activity

City Distance Mag. Time & Date
Minimum magnitude displayed is 2.5.

Earthquake Activity

City Distance Mag. Time & Date
Minimum magnitude displayed is 2.5.

Coastal Water Temperatures

Place Temperature

Stations

Nearby Weather Stations

Station Location Temp. Windchill Dew Point Humidity Wind Precip. Elev Updated Type
                   

Watches & Warnings

There are currently no watches in effect.